Terminal Aerodrome Forecast
Issued by NWS Brownsville, TX

Current Version | Previous Version | Text Only | Print | Product List | Glossary Off
Versions: 1 2 3 4 5 6 7 8 9 10 11 12 13 14 15 16 17

949
FTUS44 KBRO 242335
TAFHRL
TAF
KHRL 242335Z 2500/2524 16019G26KT P6SM FEW060
     FM250300 16012KT P6SM FEW025
     FM250900 17007KT P6SM SCT025
     FM251700 15010KT P6SM FEW040=

USA.gov is the U.S. government's official web portal to all federal, state and local government web resources and services.